NCAR-RAP Real-Time Weather Data

Output produced by METARs form (26 May 2022  07:17 UTC)
found at http://weather.rap.ucar.edu/surface/
 
KPWM 260651Z 19005KT 10SM CLR 11/08 A3031 RMK AO2 SLP264 T01110083
KPWM 260551Z 00000KT 10SM CLR 10/08 A3033 RMK AO2 SLP270 T01000083 10122 20100 58001
KPWM 260451Z 00000KT 10SM CLR 11/08 A3033 RMK AO2 SLP272 T01060083 401720056
KPWM 260351Z 23003KT 10SM CLR 11/09 A3033 RMK AO2 SLP271 LAST T01110089
KPWM 260251Z 18003KT 10SM CLR 11/08 A3033 RMK AO2 SLP271 T01110083 58002
KPWM 260151Z 17003KT 10SM CLR 12/08 A3035 RMK AO2 SLP276 T01170078
KPWM 260051Z 18005KT 10SM SCT250 12/07 A3034 RMK AO2 SLP274 T01170067
KPWM 252351Z 19007KT 10SM SCT250 12/06 A3034 RMK AO2 SLP273 T01220061 10167 20122 55003
KPWM 252251Z 20010G16KT 10SM SCT250 13/06 A3033 RMK AO2 SLP271 T01330061
KPWM 252151Z 17009KT 10SM FEW060 FEW250 14/06 A3033 RMK AO2 SLP272 T01440061
KPWM 252051Z 20011G20KT 10SM FEW060 FEW250 15/06 A3034 RMK AO2 SLP275 T01500056 56007
KPWM 251951Z 19009KT 10SM FEW060 FEW250 16/06 A3035 RMK AO2 SLP277 T01560061
KPWM 251851Z 18012G19KT 10SM FEW060 FEW250 16/07 A3036 RMK AO2 SLP280 T01560067
KPWM 251751Z 17012KT 10SM FEW060 FEW250 16/07 A3037 RMK AO2 RAB03E09 SLP283 P0000 60000 T01610067 10172 20117 58008
KPWM 251651Z 18011KT 10SM FEW055 FEW250 16/09 A3038 RMK AO2 SLP287 T01560094
KPWM 251551Z 16010KT 10SM FEW055 SCT250 16/10 A3038 RMK AO2 SLP288 T01610100
KPWM 251451Z 14007KT 10SM FEW080 FEW250 17/10 A3039 RMK AO2 SLP290 T01670100 58002
KPWM 251351Z 00000KT 10SM FEW080 16/08 A3040 RMK AO2 SLP292 T01610083
KPWM 251251Z 00000KT 10SM FEW065 14/08 A3040 RMK AO2 SLP294 T01390078
KPWM 251151Z 21004KT 10SM FEW005 FEW065 FEW250 12/08 A3039 RMK AO2 SLP292 T01170083 10117 20056 51009
KPWM 251051Z 00000KT 10SM FEW055 FEW250 09/07 A3039 RMK AO2 SLP290 T00890072
KPWM 250951Z 00000KT 10SM FEW055 BKN250 07/06 A3038 RMK AO2 SLP287 T00670056
KPWM 250851Z 00000KT 10SM FEW070 FEW250 06/04 A3037 RMK AO2 SLP283 T00560044 55001
KPWM 250751Z AUTO 00000KT 10SM CLR 06/05 A3036 RMK AO2 SLP281 T00610050
KPWM 250651Z AUTO 00000KT 10SM BKN085 07/06 A3036 RMK AO2 SLP279 T00670056
KPWM 250551Z AUTO 00000KT 10SM CLR 08/06 A3037 RMK AO2 SLP284 T00780061 10106 20067 55003
KPWM 250451Z AUTO 00000KT 10SM FEW085 07/06 A3037 RMK AO2 SLP284 T00720061 401610067
KPWM 250351Z 00000KT 10SM BKN090 09/07 A3038 RMK AO2 SLP288 LAST T00890067
KPWM 250251Z 00000KT 10SM BKN080 08/07 A3038 RMK AO2 SLP288 T00830067 51008
KPWM 250151Z 00000KT 10SM CLR 09/07 A3038 RMK AO2 SLP287 T00890072
KPWM 250051Z 19003KT 10SM CLR 10/08 A3036 RMK AO2 SLP280 T01000078
KPWM 242351Z 18003KT 10SM SCT250 11/07 A3036 RMK AO2 SLP279 T01060072 10144 20106 51002
KPWM 242251Z 17009KT 10SM SCT250 12/06 A3035 RMK AO2 SLP278 T01170061
KPWM 242151Z 17008KT 10SM FEW050 FEW250 12/08 A3036 RMK AO2 SLP279 T01220078
KPWM 242051Z 12010KT 10SM FEW250 14/07 A3035 RMK AO2 SLP277 T01390067 55000
KPWM 241951Z 10008KT 10SM FEW250 14/08 A3034 RMK AO2 SLP275 T01390078
KPWM 241851Z 09010KT 10SM FEW060 FEW250 14/08 A3034 RMK AO2 SLP275 T01440078
KPWM 241751Z 10010KT 10SM FEW060 FEW250 14/07 A3035 RMK AO2 SLP277 T01440067 10161 20117 56008
KPWM 241651Z 09013KT 10SM FEW065 FEW250 15/05 A3035 RMK AO2 SLP277 T01500050
KPWM 241551Z 10009KT 10SM FEW065 FEW250 16/04 A3037 RMK AO2 SLP284 T01560039
KPWM 241451Z 12008KT 10SM FEW050 FEW250 15/03 A3037 RMK AO2 SLP285 T01500033 50003
KPWM 241351Z 07007KT 10SM FEW250 14/02 A3038 RMK AO2 SLP287 T01440022
KPWM 241251Z 03007KT 10SM SCT250 13/02 A3038 RMK AO2 SLP288 T01330017
KPWM 241151Z 03009KT 10SM BKN250 12/02 A3037 RMK AO2 SLP282 T01170022 10117 20072 50005
KPWM 241051Z 02007KT 10SM FEW150 BKN250 10/03 A3037 RMK AO2 SLP284 T01000028
KPWM 240951Z 36004KT 10SM FEW150 BKN250 08/03 A3036 RMK AO2 SLP282 T00830028
KPWM 240851Z 35004KT 10SM SCT150 BKN200 08/03 A3035 RMK AO2 SLP277 T00780028 51014
KPWM 240751Z AUTO 01004KT 10SM CLR 09/02 A3034 RMK AO2 SLP273 T00890022